createdAt,value
2022-09-15T00:00:36.023Z,100926.50
2022-09-15T00:03:07.743Z,100922.97
2022-09-15T00:05:39.900Z,100924.63
2022-09-15T00:08:14.590Z,100861.91
2022-09-15T00:10:58.042Z,100931.25
2022-09-15T00:13:30.251Z,100936.22
2022-09-15T00:16:02.350Z,100933.78
2022-09-15T00:18:34.612Z,100928.38
2022-09-15T00:21:12.061Z,100940.00
2022-09-15T00:23:44.485Z,100923.78
2022-09-15T00:26:23.670Z,100833.00
2022-09-15T00:28:56.342Z,100918.97
2022-09-15T00:31:30.526Z,100915.44
2022-09-15T00:34:04.427Z,100853.97
2022-09-15T00:36:36.829Z,100928.75
2022-09-15T00:39:08.611Z,100938.97
2022-09-15T00:41:42.536Z,100954.09
2022-09-15T00:44:39.184Z,100948.31
2022-09-15T00:47:19.112Z,100952.84
2022-09-15T00:49:58.970Z,100932.69
2022-09-15T00:52:58.407Z,100954.75
2022-09-15T00:55:36.457Z,100880.13
2022-09-15T00:58:14.901Z,100964.88
2022-09-15T01:00:57.042Z,100926.25
2022-09-15T01:03:34.177Z,100874.94
2022-09-15T01:06:21.903Z,100964.06
2022-09-15T01:09:03.926Z,100975.47
2022-09-15T01:11:36.764Z,100975.47
2022-09-15T01:14:08.941Z,100965.09
2022-09-15T01:16:50.117Z,100895.91
2022-09-15T01:20:00.261Z,100982.34
2022-09-15T01:22:50.406Z,100981.94
2022-09-15T01:25:46.603Z,100980.03
2022-09-15T01:28:50.403Z,100978.00
2022-09-15T01:31:26.874Z,100976.06
2022-09-15T01:34:07.817Z,100973.56
2022-09-15T01:36:43.027Z,100883.81
2022-09-15T01:39:20.682Z,100972.09
2022-09-15T01:42:08.240Z,100895.66
2022-09-15T01:45:05.460Z,100976.69
2022-09-15T01:47:39.196Z,100912.88
2022-09-15T01:50:20.465Z,100917.69
2022-09-15T01:52:56.482Z,100919.13
2022-09-15T01:55:55.420Z,100927.69
2022-09-15T01:58:28.451Z,100987.66
2022-09-15T02:01:06.138Z,100983.50
2022-09-15T02:04:15.934Z,100992.06
2022-09-15T02:06:59.687Z,101003.47
2022-09-15T02:09:39.525Z,100988.44
2022-09-15T02:12:35.478Z,100981.19
2022-09-15T02:15:13.378Z,100914.47
2022-09-15T02:17:53.748Z,100971.44
2022-09-15T02:21:10.829Z,100976.53
2022-09-15T02:23:52.760Z,100890.56
2022-09-15T02:26:29.803Z,100855.09
2022-09-15T02:29:11.939Z,100898.88
2022-09-15T02:31:45.621Z,100983.16
2022-09-15T02:34:31.610Z,100916.34
2022-09-15T02:37:06.337Z,100932.72
2022-09-15T02:39:42.750Z,100971.50
2022-09-15T02:42:15.024Z,100986.06
2022-09-15T02:44:47.170Z,100980.84
2022-09-15T02:47:19.460Z,100967.28
2022-09-15T02:49:52.230Z,100987.47
2022-09-15T02:52:24.599Z,100993.28
2022-09-15T02:54:56.732Z,100980.34
2022-09-15T02:57:29.221Z,100980.97
2022-09-15T03:00:18.295Z,100992.44
2022-09-15T03:02:53.433Z,100912.22
2022-09-15T03:05:31.906Z,100913.72
2022-09-15T03:08:04.540Z,100996.16
2022-09-15T03:10:36.664Z,100985.56
2022-09-15T03:13:10.235Z,100999.00
2022-09-15T03:15:42.794Z,101001.50
2022-09-15T03:18:14.979Z,101007.75
2022-09-15T03:20:47.211Z,100961.28
2022-09-15T03:23:19.474Z,100937.31
2022-09-15T03:25:51.605Z,101001.25
2022-09-15T03:28:23.815Z,100996.66
2022-09-15T03:30:56.944Z,100989.75
2022-09-15T03:33:29.300Z,100919.16
2022-09-15T03:36:03.010Z,100968.34
2022-09-15T03:38:35.630Z,100986.38
2022-09-15T03:41:12.117Z,100983.44
2022-09-15T03:43:44.251Z,100963.88
2022-09-15T03:46:16.614Z,100950.47
2022-09-15T03:48:51.550Z,100939.31
2022-09-15T03:51:23.735Z,100948.38
2022-09-15T03:53:57.281Z,100958.78
2022-09-15T03:56:32.961Z,100948.38
2022-09-15T03:59:07.274Z,100932.56
2022-09-15T04:01:39.451Z,100927.16
2022-09-15T04:04:12.101Z,100938.34
2022-09-15T04:06:44.433Z,100935.63
2022-09-15T04:09:16.736Z,100930.44
2022-09-15T04:11:49.361Z,100910.66
2022-09-15T04:14:21.494Z,100930.59
2022-09-15T04:16:53.895Z,100917.09
2022-09-15T04:19:26.236Z,100928.47
2022-09-15T04:21:58.356Z,100932.88
2022-09-15T04:24:30.617Z,100920.97
2022-09-15T04:27:02.895Z,100908.69
2022-09-15T04:29:35.565Z,100896.78
2022-09-15T04:32:07.923Z,100888.22
2022-09-15T04:34:41.504Z,100884.44
2022-09-15T04:37:14.466Z,100869.91
2022-09-15T04:39:46.648Z,100866.06
2022-09-15T04:42:18.982Z,100850.63
2022-09-15T04:44:51.227Z,100852.53
2022-09-15T04:47:23.407Z,100844.38
2022-09-15T04:49:55.899Z,100853.09
2022-09-15T04:52:28.065Z,100825.72
2022-09-15T04:55:00.242Z,100824.81
2022-09-15T04:57:32.653Z,100820.13
2022-09-15T05:00:08.140Z,100755.03
2022-09-15T05:02:40.540Z,100757.91
2022-09-15T05:05:12.762Z,100773.22
2022-09-15T05:07:44.968Z,100789.72
2022-09-15T05:10:18.645Z,100789.25
2022-09-15T05:12:50.860Z,100791.03
2022-09-15T05:15:24.495Z,100791.66
2022-09-15T05:17:56.696Z,100779.75
2022-09-15T05:20:28.934Z,100779.88
2022-09-15T05:23:01.005Z,100779.88
2022-09-15T05:25:33.455Z,100771.91
2022-09-15T05:28:05.601Z,100752.63
2022-09-15T05:30:44.246Z,100758.94
2022-09-15T05:33:22.791Z,100755.16
2022-09-15T05:36:02.266Z,100762.84
2022-09-15T05:38:34.917Z,100748.81
2022-09-15T05:41:09.643Z,100753.06
2022-09-15T05:43:42.157Z,100748.34
2022-09-15T05:46:15.142Z,100746.28
2022-09-15T05:48:48.502Z,100714.69
2022-09-15T05:51:20.563Z,100734.34
2022-09-15T05:53:52.978Z,100730.75
2022-09-15T05:56:25.210Z,100727.56
2022-09-15T05:58:57.395Z,100721.53
2022-09-15T06:01:30.094Z,100701.47
2022-09-15T06:04:03.237Z,100706.69
2022-09-15T06:06:35.352Z,100691.34
2022-09-15T06:09:26.118Z,100689.25
2022-09-15T06:11:57.614Z,100695.50
2022-09-15T06:14:30.094Z,100688.16
2022-09-15T06:17:02.052Z,100627.09
2022-09-15T06:19:36.048Z,100537.84
2022-09-15T06:22:08.038Z,100638.03
2022-09-15T06:24:39.677Z,100669.84
2022-09-15T06:27:14.600Z,100664.56
2022-09-15T06:30:05.036Z,100658.22
2022-09-15T06:32:41.296Z,100680.03
2022-09-15T06:35:15.408Z,100668.72
2022-09-15T06:37:47.491Z,100672.84
2022-09-15T06:40:19.561Z,100669.09
2022-09-15T06:42:56.867Z,100658.56
2022-09-15T06:45:28.886Z,100634.50
2022-09-15T06:48:20.650Z,100645.97
2022-09-15T06:50:57.457Z,100660.97
2022-09-15T06:53:37.981Z,100660.97
2022-09-15T06:56:13.311Z,100519.09
2022-09-15T06:58:46.850Z,100651.38
2022-09-15T07:01:25.047Z,100583.53
2022-09-15T07:03:58.745Z,100654.81
2022-09-15T07:06:32.458Z,100578.94
2022-09-15T07:09:05.111Z,100644.06
2022-09-15T07:11:37.320Z,100638.16
2022-09-15T07:14:09.451Z,100610.28
2022-09-15T07:16:41.553Z,100626.09
2022-09-15T07:19:13.998Z,100635.63
2022-09-15T07:21:48.218Z,100621.81
2022-09-15T07:24:25.129Z,100627.59
2022-09-15T07:26:58.849Z,100597.91
2022-09-15T07:29:33.792Z,100639.66
2022-09-15T07:32:08.717Z,100637.06
2022-09-15T07:34:40.942Z,100634.09
2022-09-15T07:37:14.374Z,100640.94
2022-09-15T07:39:46.719Z,100628.44
2022-09-15T07:42:19.855Z,100645.91
2022-09-15T07:44:51.852Z,100640.47
2022-09-15T07:47:24.143Z,100645.66
2022-09-15T07:49:56.572Z,100638.94
2022-09-15T07:52:28.247Z,100632.31
2022-09-15T07:55:00.350Z,100625.91
2022-09-15T07:57:33.911Z,100623.78
2022-09-15T08:00:06.898Z,100613.97
2022-09-15T08:02:43.647Z,100617.03
2022-09-15T08:05:20.359Z,100555.69
2022-09-15T08:07:54.402Z,100598.38
2022-09-15T08:10:27.430Z,100535.44
2022-09-15T08:13:00.352Z,100615.72
2022-09-15T08:15:36.491Z,100622.56
2022-09-15T08:18:10.510Z,100619.03
2022-09-15T08:20:44.034Z,100620.44
2022-09-15T08:23:16.151Z,100616.06
2022-09-15T08:25:49.075Z,100604.94
2022-09-15T08:28:22.622Z,100607.41
2022-09-15T08:31:07.349Z,100589.41
2022-09-15T08:33:43.368Z,100611.22
2022-09-15T08:36:17.787Z,100607.66
2022-09-15T08:38:50.201Z,100601.16
2022-09-15T08:41:37.320Z,100558.97
2022-09-15T08:44:43.454Z,100600.94
2022-09-15T08:47:27.321Z,100602.13
2022-09-15T08:50:14.616Z,100596.78
2022-09-15T08:52:51.162Z,100585.72
2022-09-15T08:55:51.640Z,100577.94
2022-09-15T08:58:33.581Z,100519.47
2022-09-15T09:01:13.930Z,100513.81
2022-09-15T09:03:57.500Z,100593.50
2022-09-15T09:06:47.711Z,100595.13
2022-09-15T09:09:35.590Z,100605.34
2022-09-15T09:12:40.210Z,100602.84
2022-09-15T09:15:35.236Z,100544.25
2022-09-15T09:18:54.476Z,100615.50
2022-09-15T09:21:40.914Z,100545.09
2022-09-15T09:24:28.625Z,100616.50
2022-09-15T09:27:01.641Z,100611.41
2022-09-15T09:29:41.241Z,100532.75
2022-09-15T09:32:26.380Z,100623.72
2022-09-15T09:35:01.652Z,100607.03
2022-09-15T09:37:35.427Z,100612.22
2022-09-15T09:40:08.007Z,100617.78
2022-09-15T09:42:43.884Z,100613.44
2022-09-15T09:45:18.038Z,100615.75
2022-09-15T09:47:50.201Z,100614.25
2022-09-15T09:50:44.553Z,100628.91
2022-09-15T09:53:31.376Z,100626.91
2022-09-15T09:56:26.561Z,100634.81
2022-09-15T09:58:58.659Z,100640.13
2022-09-15T10:01:32.478Z,100643.34
2022-09-15T10:04:20.877Z,100615.97
2022-09-15T10:06:57.485Z,100635.63
2022-09-15T10:09:33.240Z,100633.50
2022-09-15T10:12:07.609Z,100641.53
2022-09-15T10:14:44.429Z,100557.19
2022-09-15T10:17:22.767Z,100629.53
2022-09-15T10:19:56.082Z,100559.69
2022-09-15T10:22:41.700Z,100646.28
2022-09-15T10:25:22.741Z,100640.38
2022-09-15T10:28:14.911Z,100650.53
2022-09-15T10:31:08.917Z,100652.69
2022-09-15T10:33:49.522Z,100599.31
2022-09-15T10:36:41.551Z,100655.88
2022-09-15T10:39:25.339Z,100641.13
2022-09-15T10:42:23.784Z,100635.47
2022-09-15T10:45:09.174Z,100662.00
2022-09-15T10:48:00.381Z,100662.25
2022-09-15T10:50:41.487Z,100664.34
2022-09-15T10:53:24.018Z,100673.66
2022-09-15T10:56:31.136Z,100683.00
2022-09-15T10:59:30.501Z,100679.09
2022-09-15T11:02:57.402Z,100673.47
2022-09-15T11:05:40.750Z,100686.22
2022-09-15T11:08:39.721Z,100603.34
2022-09-15T11:11:21.367Z,100686.22
2022-09-15T11:14:11.802Z,100678.91
2022-09-15T11:16:51.264Z,100681.25
2022-09-15T11:19:37.212Z,100678.53
2022-09-15T11:22:20.091Z,100700.75
2022-09-15T11:25:12.806Z,100630.72
2022-09-15T11:28:21.467Z,100691.28
2022-09-15T11:31:05.572Z,100705.25
2022-09-15T11:33:51.530Z,100713.63
2022-09-15T11:36:39.478Z,100718.31
2022-09-15T11:39:25.786Z,100724.97
2022-09-15T11:42:09.670Z,100672.63
2022-09-15T11:44:48.197Z,100666.72
2022-09-15T11:47:26.744Z,100762.84
2022-09-15T11:50:18.162Z,100757.19
2022-09-15T11:53:02.430Z,100764.88
2022-09-15T11:55:37.229Z,100773.13
2022-09-15T11:58:22.574Z,100771.34
2022-09-15T12:01:14.419Z,100777.13
2022-09-15T12:04:00.338Z,100785.75
2022-09-15T12:06:45.917Z,100767.56
2022-09-15T12:09:21.297Z,100734.22
2022-09-15T12:12:09.553Z,100804.53
2022-09-15T12:14:45.969Z,100781.50
2022-09-15T12:17:24.756Z,100810.44
2022-09-15T12:20:09.808Z,100810.44
2022-09-15T12:22:49.488Z,100810.44
2022-09-15T12:25:35.528Z,100783.59
2022-09-15T12:28:26.431Z,100816.03
2022-09-15T12:31:17.733Z,100813.31
2022-09-15T12:33:59.733Z,100734.28
2022-09-15T12:36:35.163Z,100808.06
2022-09-15T12:39:39.450Z,100814.47
2022-09-15T12:42:34.782Z,100817.69
2022-09-15T12:45:22.339Z,100813.53
2022-09-15T12:48:06.405Z,100754.56
2022-09-15T12:50:42.588Z,100763.72
2022-09-15T12:56:31.271Z,100701.75
2022-09-15T12:59:09.010Z,100841.03
2022-09-15T13:01:51.819Z,100840.63
2022-09-15T13:04:46.943Z,100838.81
2022-09-15T13:07:19.970Z,100843.16
2022-09-15T13:10:13.047Z,100850.81
2022-09-15T13:12:53.586Z,100850.03
2022-09-15T13:15:29.697Z,100865.47
2022-09-15T13:18:07.825Z,100867.19
2022-09-15T13:20:45.037Z,100855.28
2022-09-15T13:23:24.783Z,100867.75
2022-09-15T13:26:00.092Z,100799.41
2022-09-15T13:28:33.186Z,100880.75
2022-09-15T13:31:17.886Z,100823.84
2022-09-15T13:40:50.260Z,100898.84
2022-09-15T13:43:38.690Z,100904.28
2022-09-15T13:46:32.496Z,100916.81
2022-09-15T13:49:37.150Z,100910.56
2022-09-15T13:52:49.371Z,100914.72
2022-09-15T13:55:30.333Z,100866.13
2022-09-15T14:01:10.692Z,100934.22
2022-09-15T14:04:04.031Z,100793.16
2022-09-15T14:06:45.223Z,100856.63
2022-09-15T14:09:40.295Z,100920.25
2022-09-15T14:12:17.701Z,100944.97
2022-09-15T14:14:59.426Z,100954.94
2022-09-15T14:17:34.818Z,100941.47
2022-09-15T14:20:27.481Z,100947.31
2022-09-15T14:23:03.915Z,100941.19
2022-09-15T14:25:40.162Z,100936.09
2022-09-15T14:28:31.340Z,100943.59
2022-09-15T14:31:05.417Z,100930.50
2022-09-15T14:33:41.389Z,100942.78
2022-09-15T14:36:34.897Z,100943.44
2022-09-15T14:39:14.348Z,100935.72
2022-09-15T14:41:53.391Z,100934.91
2022-09-15T14:47:41.333Z,100851.03
2022-09-15T14:50:33.967Z,100844.59
2022-09-15T14:53:27.163Z,100944.72
2022-09-15T14:56:18.524Z,100934.16
2022-09-15T14:59:01.060Z,100744.34
2022-09-15T15:01:52.545Z,100915.47
2022-09-15T15:04:41.936Z,100923.34
2022-09-15T15:07:32.811Z,100854.38
2022-09-15T15:10:20.084Z,100884.50
2022-09-15T15:13:06.704Z,100824.44
2022-09-15T15:15:40.617Z,100876.34
2022-09-15T15:18:48.073Z,100925.81
2022-09-15T15:21:36.397Z,100928.66
2022-09-15T15:24:20.009Z,100909.69
2022-09-15T15:26:53.320Z,100919.50
2022-09-15T15:29:47.536Z,100917.41
2022-09-15T15:32:23.813Z,100917.38
2022-09-15T15:35:04.562Z,100823.94
2022-09-15T15:37:37.188Z,100900.31
2022-09-15T15:40:19.602Z,100803.38
2022-09-15T15:42:57.793Z,100901.38
2022-09-15T15:45:35.664Z,100837.63
2022-09-15T15:48:10.704Z,100896.56
2022-09-15T15:50:42.940Z,100802.56
2022-09-15T15:53:15.617Z,100884.91
2022-09-15T15:55:48.918Z,100862.72
2022-09-15T15:58:21.283Z,100875.78
2022-09-15T16:00:58.038Z,100816.06
2022-09-15T16:03:30.515Z,100885.34
2022-09-15T16:06:04.594Z,100872.47
2022-09-15T16:08:41.253Z,100884.13
2022-09-15T16:11:17.211Z,100803.56
2022-09-15T16:13:49.937Z,100875.81
2022-09-15T16:16:27.739Z,100867.09
2022-09-15T16:19:00.113Z,100860.47
2022-09-15T16:21:40.594Z,100877.91
2022-09-15T16:24:16.908Z,100798.19
2022-09-15T16:26:53.708Z,100876.25
2022-09-15T16:29:30.619Z,100864.63
2022-09-15T16:32:03.129Z,100840.13
2022-09-15T16:34:35.437Z,100871.66
2022-09-15T16:37:08.979Z,100789.06
2022-09-15T16:39:41.248Z,100856.69
2022-09-15T16:42:13.527Z,100838.00
2022-09-15T16:44:46.845Z,100857.53
2022-09-15T16:47:19.286Z,100847.97
2022-09-15T16:49:52.764Z,100839.50
2022-09-15T16:52:25.195Z,100850.06
2022-09-15T16:54:58.201Z,100847.78
2022-09-15T16:57:30.438Z,100838.00
2022-09-15T17:00:02.714Z,100837.56
2022-09-15T17:02:35.445Z,100831.38
2022-09-15T17:05:25.327Z,100825.97
2022-09-15T17:07:58.588Z,100822.22
2022-09-15T17:10:31.005Z,100825.34
2022-09-15T17:13:04.405Z,100825.97
2022-09-15T17:15:41.512Z,100703.75
2022-09-15T17:18:17.336Z,100812.25
2022-09-15T17:20:51.400Z,100796.09
2022-09-15T17:23:32.601Z,100814.34
2022-09-15T17:26:07.729Z,100808.75
2022-09-15T17:28:40.351Z,100814.53
2022-09-15T17:31:24.551Z,100753.56
2022-09-15T17:33:57.254Z,100810.63
2022-09-15T17:36:29.638Z,100808.97
2022-09-15T17:39:01.991Z,100802.72
2022-09-15T17:41:34.804Z,100780.09
2022-09-15T17:44:12.551Z,100771.59
2022-09-15T17:46:45.332Z,100789.88
2022-09-15T17:49:17.927Z,100785.72
2022-09-15T17:51:50.625Z,100793.59
2022-09-15T17:54:22.947Z,100780.72
2022-09-15T17:56:55.276Z,100787.16
2022-09-15T17:59:27.613Z,100790.50
2022-09-15T18:02:00.035Z,100783.44
2022-09-15T18:04:32.367Z,100778.22
2022-09-15T18:07:04.605Z,100757.88
2022-09-15T18:09:36.856Z,100760.34
2022-09-15T18:12:10.990Z,100766.59
2022-09-15T18:14:43.204Z,100766.59
2022-09-15T18:17:15.450Z,100748.72
2022-09-15T18:19:47.821Z,100738.56
2022-09-15T18:22:21.233Z,100758.06
2022-09-15T18:24:53.525Z,100752.84
2022-09-15T18:27:25.814Z,100744.13
2022-09-15T18:29:58.346Z,100743.31
2022-09-15T18:32:30.595Z,100738.94
2022-09-15T18:35:02.883Z,100728.78
2022-09-15T18:37:35.193Z,100706.81
2022-09-15T18:40:10.996Z,100719.25
2022-09-15T18:42:43.353Z,100718.41
2022-09-15T18:45:17.923Z,100709.66
2022-09-15T18:47:51.880Z,100685.44
2022-09-15T18:50:26.680Z,100638.78
2022-09-15T18:52:58.993Z,100709.06
2022-09-15T18:55:31.325Z,100704.69
2022-09-15T18:58:04.175Z,100693.97
2022-09-15T19:00:36.494Z,100697.66
2022-09-15T19:03:11.489Z,100616.38
2022-09-15T19:05:43.942Z,100688.09
2022-09-15T19:08:17.032Z,100691.84
2022-09-15T19:10:58.993Z,100555.88
2022-09-15T19:13:31.798Z,100689.78
2022-09-15T19:16:08.371Z,100701.22
2022-09-15T19:18:40.701Z,100686.03
2022-09-15T19:21:14.336Z,100606.63
2022-09-15T19:23:46.869Z,100669.47
2022-09-15T19:26:19.568Z,100666.94
2022-09-15T19:28:53.116Z,100595.00
2022-09-15T19:31:27.714Z,100593.13
2022-09-15T19:34:00.156Z,100665.28
2022-09-15T19:36:33.849Z,100661.75
2022-09-15T19:39:06.881Z,100665.28
2022-09-15T19:41:39.247Z,100655.53
2022-09-15T19:44:11.544Z,100647.84
2022-09-15T19:46:44.172Z,100652.44
2022-09-15T19:49:16.499Z,100655.97
2022-09-15T19:51:54.444Z,100650.75
2022-09-15T19:54:28.764Z,100580.91
2022-09-15T19:57:01.473Z,100652.84
2022-09-15T19:59:33.763Z,100647.03
2022-09-15T20:02:06.590Z,100649.97
2022-09-15T20:04:41.223Z,100561.25
2022-09-15T20:07:14.118Z,100646.41
2022-09-15T20:09:46.598Z,100654.94
2022-09-15T20:12:18.845Z,100647.91
2022-09-15T20:14:51.150Z,100658.72
2022-09-15T20:17:23.415Z,100653.72
2022-09-15T20:19:55.651Z,100640.44
2022-09-15T20:22:27.405Z,100657.94
2022-09-15T20:24:59.559Z,100657.88
2022-09-15T20:27:32.617Z,100663.25
2022-09-15T20:30:04.920Z,100662.44
2022-09-15T20:32:37.589Z,100657.47
2022-09-15T20:35:10.185Z,100655.81
2022-09-15T20:37:43.485Z,100656.44
2022-09-15T20:40:16.271Z,100658.28
2022-09-15T20:42:49.337Z,100666.38
2022-09-15T20:45:21.558Z,100655.00
2022-09-15T20:47:55.864Z,100646.69
2022-09-15T20:50:28.950Z,100649.59
2022-09-15T20:53:01.608Z,100639.63
2022-09-15T20:55:33.880Z,100646.25
2022-09-15T20:58:06.238Z,100652.50
2022-09-15T21:00:38.613Z,100647.50
2022-09-15T21:03:10.883Z,100645.44
2022-09-15T21:05:44.980Z,100633.81
2022-09-15T21:08:17.266Z,100640.47
2022-09-15T21:10:50.827Z,100640.66
2022-09-15T21:13:24.429Z,100641.72
2022-09-15T21:16:04.004Z,100637.78
2022-09-15T21:18:38.475Z,100648.75
2022-09-15T21:21:19.221Z,100635.50
2022-09-15T21:23:57.948Z,100623.47
2022-09-15T21:26:57.583Z,100621.16
2022-09-15T21:29:30.937Z,100618.06
2022-09-15T21:32:03.555Z,100617.22
2022-09-15T21:34:35.923Z,100611.63
2022-09-15T21:37:08.260Z,100584.47
2022-09-15T21:39:40.718Z,100599.59
2022-09-15T21:42:14.423Z,100613.34
2022-09-15T21:44:46.732Z,100612.88
2022-09-15T21:47:21.747Z,100615.97
2022-09-15T21:49:53.536Z,100612.75
2022-09-15T21:52:26.966Z,100620.59
2022-09-15T21:55:00.913Z,100614.75
2022-09-15T21:57:33.145Z,100616.22
2022-09-15T22:00:06.557Z,100613.59
2022-09-15T22:02:38.755Z,100609.78
2022-09-15T22:05:11.092Z,100606.66
2022-09-15T22:07:43.584Z,100609.34
2022-09-15T22:11:00.386Z,100605.63
2022-09-15T22:13:32.713Z,100596.91
2022-09-15T22:16:07.522Z,100536.81
2022-09-15T22:18:41.955Z,100602.31
2022-09-15T22:21:20.292Z,100609.34
2022-09-15T22:23:54.172Z,100572.47
2022-09-15T22:26:32.403Z,100599.41
2022-09-15T22:29:06.124Z,100602.53
2022-09-15T22:31:39.317Z,100605.25
2022-09-15T22:34:12.916Z,100600.25
2022-09-15T22:36:45.786Z,100608.97
2022-09-15T22:39:18.997Z,100609.19
2022-09-15T22:41:52.381Z,100602.16
2022-09-15T22:44:25.047Z,100598.63
2022-09-15T22:46:58.953Z,100540.34
2022-09-15T22:49:31.740Z,100603.19
2022-09-15T22:52:04.633Z,100616.88
2022-09-15T22:54:37.850Z,100616.88
2022-09-15T22:57:10.867Z,100604.84
2022-09-15T22:59:44.065Z,100613.56
2022-09-15T23:02:17.094Z,100619.78
2022-09-15T23:04:50.163Z,100617.09
2022-09-15T23:07:22.896Z,100623.72
2022-09-15T23:09:55.897Z,100626.81
2022-09-15T23:12:28.641Z,100625.97
2022-09-15T23:15:05.595Z,100634.22
2022-09-15T23:17:38.344Z,100633.38
2022-09-15T23:20:12.697Z,100643.34
2022-09-15T23:22:45.772Z,100629.19
2022-09-15T23:25:18.787Z,100644.34
2022-09-15T23:27:51.686Z,100648.88
2022-09-15T23:30:24.484Z,100637.47
2022-09-15T23:32:57.288Z,100651.75
2022-09-15T23:35:30.041Z,100644.47
2022-09-15T23:38:03.200Z,100660.19
2022-09-15T23:40:35.906Z,100641.53
2022-09-15T23:43:08.694Z,100671.78
2022-09-15T23:45:41.993Z,100671.72
2022-09-15T23:48:16.311Z,100668.03
2022-09-15T23:50:49.259Z,100691.03
2022-09-15T23:53:22.029Z,100687.47
2022-09-15T23:55:54.832Z,100690.53
2022-09-15T23:58:27.576Z,100697.38
